Time;durP1;ratioP1;P1;durP2;ratioP2;P2;SDS_P1;SDS_P2;PMS_P1;PMS_P2;Temp;Humidity;BMP_temperature;BMP_pressure;BME280_temperature;BME280_humidity;BME280_pressure;Samples;Min_cycle;Max_cycle;Signal;HPM_P1;HPM_P2
2023/04/14 00:00:44;;;;;;;6.65;2.97;;;;;;;;;;4928597;28;20064;-68
2023/04/14 00:03:10;;;;;;;6.47;3.17;;;;;;;;;;4916571;29;20082;-67
2023/04/14 00:05:37;;;;;;;6.60;2.85;;;;;;;;;;4930688;29;20047;-67
2023/04/14 00:08:03;;;;;;;7.25;3.47;;;;;;;;;;4941370;28;20097;-67
2023/04/14 00:10:30;;;;;;;7.85;3.33;;;;;;;;;;4919678;29;20088;-68
2023/04/14 00:12:56;;;;;;;10.90;2.85;;;;;;;;;;4939307;28;20047;-68
2023/04/14 00:15:23;;;;;;;10.73;3.13;;;;;;;;;;4938443;28;20532;-69
2023/04/14 00:17:49;;;;;;;7.50;2.78;;;;;;;;;;4948947;28;20077;-67
2023/04/14 00:20:16;;;;;;;8.10;2.90;;;;;;;;;;4949459;28;20282;-69
2023/04/14 00:22:42;;;;;;;9.20;3.42;;;;;;;;;;4955109;28;20102;-70
2023/04/14 00:25:08;;;;;;;9.27;3.30;;;;;;;;;;4967527;28;20134;-70
2023/04/14 00:27:35;;;;;;;5.80;3.20;;;;;;;;;;4960048;28;20142;-69
2023/04/14 00:30:01;;;;;;;7.82;2.88;;;;;;;;;;4964895;28;20051;-68
2023/04/14 00:32:27;;;;;;;6.05;2.80;;;;;;;;;;4940820;28;20477;-68
2023/04/14 00:34:55;;;;;;;7.95;4.10;;;;;;;;;;4935841;29;20248;-68
2023/04/14 00:37:22;;;;;;;9.25;3.22;;;;;;;;;;4935466;28;20047;-68
2023/04/14 00:39:49;;;;;;;8.38;3.60;;;;;;;;;;4941653;29;20138;-68
2023/04/14 00:42:15;;;;;;;8.60;3.70;;;;;;;;;;4930605;28;20050;-68
2023/04/14 00:44:41;;;;;;;8.10;3.22;;;;;;;;;;4941063;28;20051;-68
2023/04/14 00:47:08;;;;;;;6.10;3.45;;;;;;;;;;4944490;28;20051;-68
2023/04/14 00:49:35;;;;;;;7.10;3.30;;;;;;;;;;4939939;29;20515;-69
2023/04/14 00:52:02;;;;;;;6.25;3.53;;;;;;;;;;4941638;28;20090;-70
2023/04/14 00:54:30;;;;;;;7.00;3.05;;;;;;;;;;4935654;29;20055;-69
2023/04/14 00:56:56;;;;;;;8.35;3.55;;;;;;;;;;4937868;28;20047;-69
2023/04/14 00:59:24;;;;;;;6.90;3.22;;;;;;;;;;4935697;28;20130;-68
2023/04/14 01:01:51;;;;;;;8.00;3.67;;;;;;;;;;4943384;28;20557;-67
2023/04/14 01:04:18;;;;;;;6.40;3.35;;;;;;;;;;4920278;29;20094;-68
2023/04/14 01:06:45;;;;;;;10.15;4.00;;;;;;;;;;4931752;28;20568;-68
2023/04/14 01:09:12;;;;;;;8.57;4.10;;;;;;;;;;4934274;29;20055;-70
2023/04/14 01:12:07;;;;;;;7.95;3.95;;;;;;;;;;4927480;28;20458;-68
2023/04/14 01:14:49;;;;;;;8.90;3.75;;;;;;;;;;4921237;28;20425;-68
2023/04/14 01:17:19;;;;;;;7.95;3.58;;;;;;;;;;4936441;28;20054;-67
2023/04/14 01:20:05;;;;;;;8.07;3.50;;;;;;;;;;4938294;29;20414;-69
2023/04/14 01:22:34;;;;;;;7.03;3.90;;;;;;;;;;4925872;29;20059;-67
2023/04/14 01:25:21;;;;;;;7.25;3.53;;;;;;;;;;4941638;28;20082;-68
2023/04/14 01:27:50;;;;;;;8.40;3.78;;;;;;;;;;4923117;28;20059;-68
2023/04/14 01:30:32;;;;;;;8.77;3.95;;;;;;;;;;4942506;29;20134;-69
2023/04/14 01:33:00;;;;;;;9.00;4.53;;;;;;;;;;4942299;28;20062;-69
2023/04/14 01:35:38;;;;;;;8.07;3.85;;;;;;;;;;4940398;28;20047;-69
2023/04/14 01:38:09;;;;;;;6.65;3.67;;;;;;;;;;4911473;29;20138;-69
2023/04/14 01:40:36;;;;;;;9.60;4.05;;;;;;;;;;4936895;29;20078;-69
2023/04/14 01:43:07;;;;;;;8.75;4.25;;;;;;;;;;4942986;28;20055;-68
2023/04/14 01:45:47;;;;;;;10.27;3.78;;;;;;;;;;4942425;28;20420;-68
2023/04/14 01:48:14;;;;;;;8.30;4.22;;;;;;;;;;4943015;28;20365;-67
2023/04/14 01:50:41;;;;;;;7.93;3.83;;;;;;;;;;4939452;28;20053;-67
2023/04/14 01:53:09;;;;;;;6.40;3.45;;;;;;;;;;4942046;28;20063;-68
2023/04/14 01:55:37;;;;;;;7.40;3.92;;;;;;;;;;4941910;29;20464;-70
2023/04/14 01:58:04;;;;;;;8.50;4.03;;;;;;;;;;4940839;28;20607;-68
2023/04/14 02:00:32;;;;;;;8.23;3.70;;;;;;;;;;4942331;28;20083;-69
2023/04/14 02:02:58;;;;;;;8.80;3.83;;;;;;;;;;4950531;28;20451;-67
2023/04/14 02:05:26;;;;;;;7.60;4.22;;;;;;;;;;4944028;28;20172;-67
2023/04/14 02:07:53;;;;;;;8.20;3.75;;;;;;;;;;4941417;28;20047;-70
2023/04/14 02:10:20;;;;;;;7.82;4.03;;;;;;;;;;4936477;29;20058;-69
2023/04/14 02:12:48;;;;;;;7.03;3.97;;;;;;;;;;4939285;28;20051;-69
2023/04/14 02:15:16;;;;;;;8.40;4.03;;;;;;;;;;4921732;28;20130;-70
2023/04/14 02:17:45;;;;;;;9.95;4.50;;;;;;;;;;4920953;29;20051;-68
2023/04/14 02:20:11;;;;;;;;;;;;;;;;;;4936178;28;20478;-68
2023/04/14 02:22:38;;;;;;;8.48;4.85;;;;;;;;;;4939345;28;19936;-68
2023/04/14 02:25:05;;;;;;;11.15;4.32;;;;;;;;;;4942533;29;20489;-70
2023/04/14 02:27:37;;;;;;;9.30;4.40;;;;;;;;;;4918917;29;20061;-68
2023/04/14 02:30:07;;;;;;;6.75;4.18;;;;;;;;;;4917592;28;20055;-69
2023/04/14 02:32:34;;;;;;;11.50;4.43;;;;;;;;;;4921510;28;20511;-68
2023/04/14 02:35:07;;;;;;;11.93;4.15;;;;;;;;;;4927983;28;20078;-73
2023/04/14 02:37:35;;;;;;;7.60;4.15;;;;;;;;;;4941012;28;20075;-72
2023/04/14 02:40:24;;;;;;;9.70;4.68;;;;;;;;;;4941505;29;20051;-73
2023/04/14 02:42:54;;;;;;;7.57;4.05;;;;;;;;;;4942029;28;20727;-73
2023/04/14 02:45:24;;;;;;;9.60;4.75;;;;;;;;;;4929298;28;20062;-73
2023/04/14 02:47:53;;;;;;;8.43;4.38;;;;;;;;;;4941999;28;20151;-68
2023/04/14 02:50:20;;;;;;;9.65;4.50;;;;;;;;;;4946573;28;20074;-68
2023/04/14 02:52:50;;;;;;;9.98;4.55;;;;;;;;;;4942193;28;20065;-68
2023/04/14 02:55:17;;;;;;;9.27;4.32;;;;;;;;;;4946107;29;20051;-68
2023/04/14 02:57:45;;;;;;;6.28;4.57;;;;;;;;;;4942903;28;20193;-68
2023/04/14 03:00:12;;;;;;;7.65;4.78;;;;;;;;;;4941195;28;20106;-68
2023/04/14 03:02:41;;;;;;;9.10;4.55;;;;;;;;;;4936620;28;20519;-67
2023/04/14 03:05:07;;;;;;;11.20;4.63;;;;;;;;;;4945602;29;20614;-69
2023/04/14 03:07:35;;;;;;;9.27;4.60;;;;;;;;;;4943483;28;20058;-69
2023/04/14 03:10:01;;;;;;;10.90;5.72;;;;;;;;;;4940210;29;20063;-69
2023/04/14 03:12:28;;;;;;;8.52;4.82;;;;;;;;;;4946058;28;20190;-70
2023/04/14 03:14:54;;;;;;;7.78;4.97;;;;;;;;;;4948966;28;20055;-68
2023/04/14 03:17:21;;;;;;;11.10;4.70;;;;;;;;;;4944900;28;20047;-68
2023/04/14 03:19:49;;;;;;;10.18;5.00;;;;;;;;;;4938596;28;20059;-69
2023/04/14 03:22:16;;;;;;;10.02;5.13;;;;;;;;;;4935527;29;20047;-69
2023/04/14 03:24:43;;;;;;;9.45;5.20;;;;;;;;;;4931080;29;20059;-69
2023/04/14 03:27:12;;;;;;;13.30;4.78;;;;;;;;;;4942686;29;20055;-68
2023/04/14 03:29:40;;;;;;;10.45;4.57;;;;;;;;;;4921323;29;20429;-69
2023/04/14 03:32:07;;;;;;;7.45;5.03;;;;;;;;;;4942411;28;20051;-69
2023/04/14 03:34:39;;;;;;;8.18;4.47;;;;;;;;;;4922918;28;20682;-68
2023/04/14 03:37:07;;;;;;;6.63;4.30;;;;;;;;;;4937920;28;20411;-69
2023/04/14 03:39:35;;;;;;;8.07;4.88;;;;;;;;;;4926657;29;20052;-68
2023/04/14 03:42:02;;;;;;;10.30;4.18;;;;;;;;;;4933663;28;20051;-68
2023/04/14 03:44:33;;;;;;;9.77;4.40;;;;;;;;;;4943594;28;20268;-69
2023/04/14 03:47:02;;;;;;;12.13;4.25;;;;;;;;;;4926554;28;20044;-70
2023/04/14 03:49:32;;;;;;;8.15;4.32;;;;;;;;;;4937762;28;20059;-69
2023/04/14 03:52:01;;;;;;;6.43;4.43;;;;;;;;;;4944659;29;20615;-68
2023/04/14 03:54:29;;;;;;;8.02;4.50;;;;;;;;;;4944562;28;20051;-70
2023/04/14 03:56:57;;;;;;;7.43;4.73;;;;;;;;;;4945369;29;20047;-68
2023/04/14 03:59:25;;;;;;;11.85;4.53;;;;;;;;;;4939984;28;20314;-69
2023/04/14 04:01:52;;;;;;;8.95;4.55;;;;;;;;;;4932760;28;20051;-69
2023/04/14 04:04:19;;;;;;;11.38;4.68;;;;;;;;;;4940312;28;20055;-68
2023/04/14 04:06:48;;;;;;;10.75;4.30;;;;;;;;;;4940381;28;20465;-69
2023/04/14 04:09:16;;;;;;;;;;;;;;;;;;4933590;28;20056;-69
2023/04/14 04:11:45;;;;;;;8.10;4.78;;;;;;;;;;4941040;28;19933;-68
2023/04/14 04:14:11;;;;;;;;;;;;;;;;;;4941466;28;20051;-68
2023/04/14 04:16:41;;;;;;;8.52;4.13;;;;;;;;;;4925251;29;19934;-69
2023/04/14 04:19:09;;;;;;;7.30;4.13;;;;;;;;;;4940231;28;20138;-68
2023/04/14 04:21:40;;;;;;;9.27;4.18;;;;;;;;;;4944556;28;20065;-68
2023/04/14 04:24:07;;;;;;;7.18;4.00;;;;;;;;;;4945296;28;20055;-69
2023/04/14 04:26:34;;;;;;;9.13;4.30;;;;;;;;;;4936964;29;20090;-68
2023/04/14 04:29:02;;;;;;;8.40;4.38;;;;;;;;;;4938615;28;20085;-67
2023/04/14 04:31:31;;;;;;;7.63;4.13;;;;;;;;;;4931909;28;20134;-70
2023/04/14 04:33:58;;;;;;;10.25;4.20;;;;;;;;;;4927082;28;20488;-68
2023/04/14 04:36:25;;;;;;;11.80;4.57;;;;;;;;;;4935482;28;20715;-69
2023/04/14 04:38:51;;;;;;;6.57;3.67;;;;;;;;;;4926924;29;20109;-69
2023/04/14 04:41:22;;;;;;;7.90;4.65;;;;;;;;;;4937330;29;20595;-69
2023/04/14 04:43:48;;;;;;;7.82;4.47;;;;;;;;;;4938734;28;20161;-70
2023/04/14 04:46:35;;;;;;;12.77;4.35;;;;;;;;;;4927504;29;20055;-69
2023/04/14 04:49:01;;;;;;;6.78;3.63;;;;;;;;;;4926054;29;20089;-68
2023/04/14 04:51:28;;;;;;;9.15;4.25;;;;;;;;;;4943985;29;20054;-68
2023/04/14 04:53:55;;;;;;;9.73;4.30;;;;;;;;;;4944025;28;20051;-67
2023/04/14 04:56:21;;;;;;;7.38;3.92;;;;;;;;;;4944356;29;20053;-68
2023/04/14 04:58:48;;;;;;;7.05;4.00;;;;;;;;;;4945067;28;20043;-69
2023/04/14 05:01:15;;;;;;;7.97;4.22;;;;;;;;;;4929194;29;20044;-68
2023/04/14 05:03:42;;;;;;;8.93;4.30;;;;;;;;;;4942661;28;20235;-68
2023/04/14 05:06:08;;;;;;;6.82;3.95;;;;;;;;;;4927263;28;20043;-70
2023/04/14 05:08:35;;;;;;;8.13;3.92;;;;;;;;;;4917399;29;20047;-68
2023/04/14 05:11:01;;;;;;;11.68;4.82;;;;;;;;;;4941486;29;20122;-69
2023/04/14 05:13:27;;;;;;;7.15;3.90;;;;;;;;;;4937690;29;20138;-69
2023/04/14 05:16:07;;;;;;;8.15;4.80;;;;;;;;;;4931052;28;20059;-68
2023/04/14 05:18:34;;;;;;;8.80;4.13;;;;;;;;;;4930370;28;20134;-69
2023/04/14 05:21:13;;;;;;;8.82;4.50;;;;;;;;;;4940091;28;20055;-68
2023/04/14 05:23:41;;;;;;;8.20;4.25;;;;;;;;;;4935004;28;20047;-68
2023/04/14 05:26:07;;;;;;;9.05;4.38;;;;;;;;;;4934041;28;20051;-68
2023/04/14 05:28:53;;;;;;;10.43;4.88;;;;;;;;;;4943162;28;20527;-70
2023/04/14 05:31:20;;;;;;;8.38;5.13;;;;;;;;;;4937907;28;20639;-68
2023/04/14 05:33:46;;;;;;;9.68;4.82;;;;;;;;;;4936921;28;20243;-68
2023/04/14 05:36:13;;;;;;;7.60;4.30;;;;;;;;;;4944129;28;20150;-68
2023/04/14 05:38:39;;;;;;;9.32;4.70;;;;;;;;;;4941593;28;20398;-68
2023/04/14 05:41:06;;;;;;;8.55;4.45;;;;;;;;;;4943407;28;20044;-69
2023/04/14 05:43:32;;;;;;;14.18;6.47;;;;;;;;;;4940682;28;20051;-68
2023/04/14 05:46:00;;;;;;;12.27;6.18;;;;;;;;;;4938997;29;20151;-68
2023/04/14 05:48:29;;;;;;;14.38;4.70;;;;;;;;;;4941900;28;20055;-69
2023/04/14 05:50:56;;;;;;;10.52;5.78;;;;;;;;;;4926129;29;20055;-68
2023/04/14 05:53:23;;;;;;;11.75;5.75;;;;;;;;;;4932607;29;20059;-68
2023/04/14 05:55:50;;;;;;;14.25;5.90;;;;;;;;;;4924195;29;20052;-70
2023/04/14 05:58:17;;;;;;;15.82;5.47;;;;;;;;;;4934796;29;20063;-68
2023/04/14 06:00:43;;;;;;;13.25;4.78;;;;;;;;;;4940913;28;20059;-68
2023/04/14 06:03:09;;;;;;;13.00;4.85;;;;;;;;;;4939563;29;20058;-68
2023/04/14 06:05:36;;;;;;;16.05;4.47;;;;;;;;;;4949874;28;20061;-69
2023/04/14 06:08:03;;;;;;;10.13;4.57;;;;;;;;;;4937863;28;20055;-68
2023/04/14 06:10:30;;;;;;;9.80;5.10;;;;;;;;;;4938384;28;20051;-68
2023/04/14 06:12:57;;;;;;;11.10;4.83;;;;;;;;;;4932831;28;20126;-68
2023/04/14 06:15:27;;;;;;;10.00;5.50;;;;;;;;;;4939940;28;20048;-69
2023/04/14 06:17:53;;;;;;;10.98;5.10;;;;;;;;;;4932210;28;20562;-69
2023/04/14 06:20:20;;;;;;;11.10;4.88;;;;;;;;;;4942788;28;20555;-69
2023/04/14 06:22:47;;;;;;;13.27;5.53;;;;;;;;;;4940355;28;20056;-67
2023/04/14 06:25:13;;;;;;;11.02;5.30;;;;;;;;;;4943795;28;20055;-68
2023/04/14 06:27:39;;;;;;;12.55;6.10;;;;;;;;;;4942415;28;20051;-68
2023/04/14 06:30:06;;;;;;;16.95;5.85;;;;;;;;;;4947586;28;20051;-70
2023/04/14 06:32:33;;;;;;;10.07;5.22;;;;;;;;;;4941711;28;20102;-69
2023/04/14 06:34:59;;;;;;;17.95;5.28;;;;;;;;;;4937185;28;20055;-69
2023/04/14 06:37:26;;;;;;;12.40;5.22;;;;;;;;;;4946252;28;20054;-70
2023/04/14 06:39:52;;;;;;;14.95;5.13;;;;;;;;;;4943719;28;20786;-68
2023/04/14 06:42:19;;;;;;;12.65;6.03;;;;;;;;;;4928696;29;20054;-70
2023/04/14 06:44:45;;;;;;;13.90;5.95;;;;;;;;;;4921115;29;20059;-67
2023/04/14 06:47:16;;;;;;;18.73;8.20;;;;;;;;;;4936370;29;20052;-66
2023/04/14 06:49:42;;;;;;;10.90;5.03;;;;;;;;;;4952201;28;20141;-68
2023/04/14 06:52:09;;;;;;;10.85;4.75;;;;;;;;;;4947134;28;20043;-67
2023/04/14 06:54:35;;;;;;;10.80;5.35;;;;;;;;;;4933077;28;20057;-68
2023/04/14 06:57:02;;;;;;;17.33;4.90;;;;;;;;;;4947017;29;20047;-68
2023/04/14 06:59:28;;;;;;;13.77;5.50;;;;;;;;;;4944191;28;20512;-68
2023/04/14 07:01:55;;;;;;;14.70;5.30;;;;;;;;;;4934836;29;20618;-68
2023/04/14 07:04:21;;;;;;;17.85;5.80;;;;;;;;;;4941946;28;20051;-68
2023/04/14 07:06:48;;;;;;;18.10;6.13;;;;;;;;;;4933162;28;20131;-68
2023/04/14 07:09:14;;;;;;;16.85;5.93;;;;;;;;;;4935713;28;20051;-67
2023/04/14 07:11:41;;;;;;;16.38;5.30;;;;;;;;;;4941048;29;20055;-68
2023/04/14 07:14:07;;;;;;;12.35;5.05;;;;;;;;;;4945540;28;20055;-68
2023/04/14 07:16:34;;;;;;;15.52;6.13;;;;;;;;;;4944500;29;20043;-67
2023/04/14 07:19:00;;;;;;;13.63;5.20;;;;;;;;;;4945128;28;20044;-68
2023/04/14 07:21:26;;;;;;;16.20;5.22;;;;;;;;;;4940499;28;20557;-68
2023/04/14 07:23:53;;;;;;;11.85;5.25;;;;;;;;;;4942690;29;20079;-69
2023/04/14 07:26:19;;;;;;;14.93;5.18;;;;;;;;;;4936599;28;20079;-68
2023/04/14 07:28:46;;;;;;;14.93;4.80;;;;;;;;;;4938141;29;20063;-69
2023/04/14 07:31:12;;;;;;;10.45;4.05;;;;;;;;;;4941931;28;20051;-68
2023/04/14 07:33:39;;;;;;;9.25;3.80;;;;;;;;;;4939956;28;20114;-68
2023/04/14 07:36:06;;;;;;;10.65;4.15;;;;;;;;;;4943035;28;20046;-68
2023/04/14 07:38:33;;;;;;;12.43;5.03;;;;;;;;;;4941757;29;20602;-68
2023/04/14 07:41:01;;;;;;;10.70;4.78;;;;;;;;;;4941919;28;20043;-68
2023/04/14 07:43:33;;;;;;;16.80;5.38;;;;;;;;;;4938698;28;20463;-69
2023/04/14 07:46:03;;;;;;;14.40;4.63;;;;;;;;;;4937677;28;20051;-68
2023/04/14 07:48:31;;;;;;;15.65;5.10;;;;;;;;;;4928212;28;20067;-67
2023/04/14 07:50:58;;;;;;;12.13;4.85;;;;;;;;;;4925180;29;20051;-67
2023/04/14 07:53:24;;;;;;;11.52;4.60;;;;;;;;;;4928646;28;20044;-68
2023/04/14 07:55:51;;;;;;;11.65;4.22;;;;;;;;;;4923260;29;20051;-68
2023/04/14 07:58:17;;;;;;;8.45;3.75;;;;;;;;;;4939655;28;20054;-67
2023/04/14 08:00:43;;;;;;;9.27;4.25;;;;;;;;;;4945093;28;20055;-70
2023/04/14 08:03:10;;;;;;;10.77;3.88;;;;;;;;;;4945080;28;20190;-69
2023/04/14 08:05:36;;;;;;;11.23;3.80;;;;;;;;;;4944127;28;20075;-69
2023/04/14 08:08:03;;;;;;;10.38;3.25;;;;;;;;;;4925471;29;20073;-68
2023/04/14 08:10:30;;;;;;;7.57;3.38;;;;;;;;;;4931621;28;20055;-67
2023/04/14 08:12:56;;;;;;;14.10;4.13;;;;;;;;;;4945037;28;20051;-69
2023/04/14 08:15:22;;;;;;;11.55;3.67;;;;;;;;;;4938924;28;20054;-69
2023/04/14 08:17:49;;;;;;;13.77;3.80;;;;;;;;;;4935632;28;20594;-68
2023/04/14 08:20:16;;;;;;;7.72;2.90;;;;;;;;;;4942187;28;20775;-69
2023/04/14 08:22:42;;;;;;;12.93;3.58;;;;;;;;;;4930957;28;20044;-69
2023/04/14 08:25:11;;;;;;;12.13;3.60;;;;;;;;;;4939517;28;20137;-66
2023/04/14 08:27:37;;;;;;;11.32;3.20;;;;;;;;;;4937405;28;20083;-68
2023/04/14 08:30:04;;;;;;;10.70;3.47;;;;;;;;;;4924769;29;20048;-69
2023/04/14 08:32:31;;;;;;;10.18;3.00;;;;;;;;;;4942076;28;20285;-67
2023/04/14 08:34:58;;;;;;;9.88;3.40;;;;;;;;;;4940256;28;20460;-68
2023/04/14 08:37:44;;;;;;;8.10;2.53;;;;;;;;;;4930189;28;20059;-68
2023/04/14 08:40:11;;;;;;;8.05;3.17;;;;;;;;;;4944896;28;20046;-67
2023/04/14 08:42:37;;;;;;;8.65;2.60;;;;;;;;;;4943038;28;20047;-68
2023/04/14 08:45:04;;;;;;;10.98;2.72;;;;;;;;;;4939359;28;20054;-66
2023/04/14 08:47:31;;;;;;;8.85;2.75;;;;;;;;;;4937947;28;20182;-68
2023/04/14 08:50:01;;;;;;;8.80;3.25;;;;;;;;;;4921552;28;20196;-69
2023/04/14 08:52:29;;;;;;;9.05;2.60;;;;;;;;;;4935885;29;20066;-69
2023/04/14 08:54:56;;;;;;;5.40;2.20;;;;;;;;;;4944372;28;20398;-68
2023/04/14 08:57:24;;;;;;;7.00;3.05;;;;;;;;;;4942101;28;20286;-67
2023/04/14 08:59:51;;;;;;;7.22;2.10;;;;;;;;;;4943971;28;20063;-67
2023/04/14 09:02:18;;;;;;;8.07;2.05;;;;;;;;;;4938134;28;20051;-68
2023/04/14 09:04:44;;;;;;;8.30;2.35;;;;;;;;;;4943468;28;20051;-68
2023/04/14 09:07:11;;;;;;;10.45;2.05;;;;;;;;;;4945060;28;20514;-68
2023/04/14 09:09:38;;;;;;;8.20;1.70;;;;;;;;;;4936793;28;20067;-69
2023/04/14 09:12:04;;;;;;;9.18;1.88;;;;;;;;;;4938588;28;20048;-68
2023/04/14 09:14:32;;;;;;;7.80;1.83;;;;;;;;;;4931231;28;20059;-67
2023/04/14 09:16:58;;;;;;;8.60;2.08;;;;;;;;;;4946318;28;20055;-67
2023/04/14 09:19:25;;;;;;;10.30;1.92;;;;;;;;;;4942299;28;20142;-66
2023/04/14 09:21:51;;;;;;;8.80;2.00;;;;;;;;;;4942167;28;20404;-67
2023/04/14 09:24:27;;;;;;;5.35;1.65;;;;;;;;;;4942143;29;20043;-66
2023/04/14 09:26:57;;;;;;;8.65;2.03;;;;;;;;;;4937713;28;20058;-67
2023/04/14 09:29:24;;;;;;;4.97;1.30;;;;;;;;;;4926147;29;20515;-68
2023/04/14 09:31:50;;;;;;;9.02;1.52;;;;;;;;;;4943482;28;20063;-68
2023/04/14 09:34:17;;;;;;;4.35;1.38;;;;;;;;;;4941849;29;20138;-67
2023/04/14 09:37:04;;;;;;;6.20;1.38;;;;;;;;;;4943240;28;20051;-67
2023/04/14 09:39:31;;;;;;;6.57;1.63;;;;;;;;;;4939633;29;20058;-67
2023/04/14 09:41:58;;;;;;;3.80;1.20;;;;;;;;;;4925375;28;20097;-67
2023/04/14 09:44:24;;;;;;;5.95;1.20;;;;;;;;;;4941535;28;20045;-67
2023/04/14 09:46:58;;;;;;;3.33;0.85;;;;;;;;;;4934883;28;20344;-69
2023/04/14 09:49:24;;;;;;;5.22;1.00;;;;;;;;;;4939579;29;20058;-67
2023/04/14 09:51:51;;;;;;;6.35;1.17;;;;;;;;;;4920606;28;20123;-68
2023/04/14 09:54:23;;;;;;;4.28;1.00;;;;;;;;;;4939385;28;20383;-68
2023/04/14 09:56:49;;;;;;;5.43;1.35;;;;;;;;;;4937434;28;20051;-68
2023/04/14 09:59:16;;;;;;;1.58;0.70;;;;;;;;;;4943106;28;20051;-68
2023/04/14 10:01:44;;;;;;;4.43;1.23;;;;;;;;;;4942624;28;20056;-66
2023/04/14 10:04:25;;;;;;;3.25;1.02;;;;;;;;;;4938656;29;20078;-68
2023/04/14 10:06:55;;;;;;;4.82;1.20;;;;;;;;;;4937733;28;20154;-68
2023/04/14 10:09:22;;;;;;;4.88;1.50;;;;;;;;;;4940064;29;20058;-68
2023/04/14 10:12:05;;;;;;;4.43;1.17;;;;;;;;;;4939309;28;20047;-67
2023/04/14 10:14:35;;;;;;;4.82;1.10;;;;;;;;;;4936733;28;20123;-69
2023/04/14 10:17:01;;;;;;;4.82;1.33;;;;;;;;;;4942431;28;20050;-68
2023/04/14 10:19:28;;;;;;;4.43;1.40;;;;;;;;;;4940148;29;20055;-67
2023/04/14 10:21:56;;;;;;;6.47;1.48;;;;;;;;;;4939144;28;20656;-68
2023/04/14 10:24:22;;;;;;;2.97;1.03;;;;;;;;;;4940345;29;20053;-68
2023/04/14 10:26:50;;;;;;;5.82;1.30;;;;;;;;;;4938886;28;20293;-67
2023/04/14 10:29:16;;;;;;;4.55;1.70;;;;;;;;;;4938048;29;20070;-68
2023/04/14 10:31:47;;;;;;;7.03;1.55;;;;;;;;;;4942234;28;20098;-67
2023/04/14 10:34:17;;;;;;;4.50;1.10;;;;;;;;;;4925842;29;20057;-68
2023/04/14 10:36:44;;;;;;;5.03;1.48;;;;;;;;;;4941884;28;20051;-69
2023/04/14 10:39:10;;;;;;;6.95;1.20;;;;;;;;;;4938059;29;20101;-67
2023/04/14 10:41:47;;;;;;;4.55;1.27;;;;;;;;;;4939957;28;20173;-69
2023/04/14 10:44:20;;;;;;;3.90;1.23;;;;;;;;;;4942386;28;20469;-68
2023/04/14 10:46:47;;;;;;;5.90;1.27;;;;;;;;;;4940223;28;20047;-68
2023/04/14 10:49:14;;;;;;;6.20;1.45;;;;;;;;;;4941266;29;20126;-68
2023/04/14 10:51:40;;;;;;;4.20;1.02;;;;;;;;;;4943146;28;20390;-68
2023/04/14 10:54:14;;;;;;;4.07;1.10;;;;;;;;;;4940673;29;20047;-67
2023/04/14 10:56:41;;;;;;;3.55;1.52;;;;;;;;;;4928314;29;20083;-68
2023/04/14 10:59:08;;;;;;;5.82;1.30;;;;;;;;;;4944936;29;20044;-67
2023/04/14 11:01:36;;;;;;;5.00;1.40;;;;;;;;;;4951474;28;20039;-68
2023/04/14 11:04:17;;;;;;;3.85;1.20;;;;;;;;;;4940834;29;20055;-67
2023/04/14 11:58:33;;;;;;;8.15;1.98;;;;;;;18.23;46.07;100781.50;6229286;22;20016;-68
2023/04/14 12:00:59;;;;;;;8.95;2.13;;;;;;;18.03;45.58;100773.44;6168252;23;1261217;-68
2023/04/14 12:03:27;;;;;;;6.68;2.00;;;;;;;17.83;45.75;100765.34;6142347;23;20035;-69
2023/04/14 12:06:00;;;;;;;6.32;1.90;;;;;;;18.25;45.82;100776.81;6147252;23;20629;-68
2023/04/14 12:08:29;;;;;;;6.78;2.17;;;;;;;18.38;45.71;100761.75;6149322;23;20362;-68
2023/04/14 12:10:56;;;;;;;6.95;1.80;;;;;;;18.70;45.71;100755.91;6147504;23;20065;-67
2023/04/14 12:13:23;;;;;;;9.65;2.30;;;;;;;18.87;46.28;100751.06;6148632;23;20416;-66
2023/04/14 12:15:51;;;;;;;6.85;2.10;;;;;;;18.83;45.27;100755.94;6148794;23;20450;-67
2023/04/14 12:18:18;;;;;;;5.97;1.70;;;;;;;19.03;45.88;100744.53;6149070;23;20025;-68
2023/04/14 12:20:55;;;;;;;7.82;2.15;;;;;;;19.17;44.26;100741.69;6149313;23;20021;-67
2023/04/14 12:23:22;;;;;;;5.65;1.90;;;;;;;19.46;43.53;100747.56;6142400;23;20592;-67
2023/04/14 12:25:49;;;;;;;9.20;2.50;;;;;;;19.74;44.23;100747.34;6142026;23;20144;-68
2023/04/14 12:28:17;;;;;;;7.10;1.80;;;;;;;20.08;44.24;100749.91;6142457;23;20350;-69
2023/04/14 12:30:51;;;;;;;13.25;1.88;;;;;;;20.14;43.46;100749.06;6140738;23;20049;-67
2023/04/14 12:33:21;;;;;;;5.47;1.65;;;;;;;19.78;41.16;100746.91;6142453;23;20037;-69
2023/04/14 12:35:50;;;;;;;6.90;2.10;;;;;;;19.41;40.57;100744.72;6141410;23;20109;-69
2023/04/14 12:38:16;;;;;;;7.53;1.65;;;;;;;19.16;43.04;100748.00;6141092;23;20346;-69
2023/04/14 12:40:45;;;;;;;5.50;1.73;;;;;;;19.10;43.71;100743.50;6145973;23;20105;-68
2023/04/14 12:43:13;;;;;;;6.28;1.80;;;;;;;19.06;44.26;100752.91;6136766;23;20022;-69
2023/04/14 12:45:44;;;;;;;7.40;1.70;;;;;;;19.17;43.69;100752.31;6142449;23;20053;-69
2023/04/14 12:48:12;;;;;;;4.97;1.55;;;;;;;19.21;40.41;100750.06;6147923;23;20030;-67
2023/04/14 12:50:39;;;;;;;6.07;1.75;;;;;;;19.60;42.71;100739.56;6142334;23;20459;-68
2023/04/14 12:53:22;;;;;;;6.93;1.73;;;;;;;19.69;42.14;100747.13;6146394;23;20044;-67
2023/04/14 12:56:05;;;;;;;7.38;1.80;;;;;;;18.98;41.00;100741.69;6140733;23;20640;-69
2023/04/14 12:58:34;;;;;;;7.60;2.08;;;;;;;18.70;41.51;100739.94;6143979;23;20033;-67
2023/04/14 13:01:01;;;;;;;4.78;1.90;;;;;;;18.58;41.89;100742.38;6134460;23;20026;-68
2023/04/14 13:04:05;;;;;;;6.00;1.67;;;;;;;18.94;43.80;100741.25;6145932;23;20032;-67
2023/04/14 13:06:32;;;;;;;6.18;1.50;;;;;;;19.26;41.43;100731.63;6139677;23;20033;-67
2023/04/14 13:08:59;;;;;;;3.10;1.50;;;;;;;19.39;42.40;100728.16;6148671;23;20022;-67
2023/04/14 13:11:26;;;;;;;5.90;2.30;;;;;;;19.81;43.88;100733.22;6135329;23;20542;-69
2023/04/14 13:13:52;;;;;;;4.70;1.73;;;;;;;20.04;44.12;100728.22;6142536;23;20035;-67
2023/04/14 13:16:20;;;;;;;6.97;2.00;;;;;;;19.74;42.35;100726.06;6146209;23;20029;-68
2023/04/14 13:18:48;;;;;;;8.25;1.80;;;;;;;19.68;42.65;100720.72;6141809;23;20033;-66
2023/04/14 13:21:15;;;;;;;5.80;1.83;;;;;;;19.94;43.64;100728.66;6148402;23;20032;-66
2023/04/14 13:23:42;;;;;;;6.07;1.63;;;;;;;20.20;42.30;100728.75;6141135;23;20029;-67
2023/04/14 13:26:08;;;;;;;6.07;1.63;;;;;;;19.95;42.39;100730.31;6143601;23;20025;-67
2023/04/14 13:28:35;;;;;;;7.28;2.17;;;;;;;19.88;42.08;100724.16;6138319;23;20364;-67
2023/04/14 13:31:02;;;;;;;6.20;2.17;;;;;;;19.75;44.05;100726.88;6146819;23;20589;-67
2023/04/14 13:33:28;;;;;;;5.95;2.10;;;;;;;19.65;43.45;100727.28;6148326;23;20030;-67
2023/04/14 13:35:56;;;;;;;7.30;2.42;;;;;;;19.52;43.36;100727.28;6143576;23;20021;-66
2023/04/14 13:38:22;;;;;;;6.93;2.20;;;;;;;19.45;43.95;100722.00;6150433;23;20295;-67
2023/04/14 13:40:49;;;;;;;8.00;1.88;;;;;;;19.59;42.92;100720.13;6139359;23;20687;-69
2023/04/14 13:43:17;;;;;;;5.25;1.98;;;;;;;19.53;42.68;100720.97;6145555;23;20144;-67
2023/04/14 13:45:45;;;;;;;7.25;2.17;;;;;;;19.73;42.42;100721.75;6145733;23;20329;-66
2023/04/14 13:48:12;;;;;;;4.47;1.85;;;;;;;19.95;42.54;100717.00;6151919;23;20029;-66
2023/04/14 13:50:38;;;;;;;6.22;2.05;;;;;;;20.04;41.98;100711.41;6168912;23;20025;-69
2023/04/14 13:53:05;;;;;;;4.18;1.90;;;;;;;20.19;42.81;100711.13;6162236;23;20033;-69
2023/04/14 13:55:33;;;;;;;6.93;2.20;;;;;;;20.40;42.68;100712.66;6161623;23;20029;-68
2023/04/14 13:57:59;;;;;;;6.60;2.05;;;;;;;20.35;41.60;100708.81;6139827;23;20026;-68
2023/04/14 14:00:26;;;;;;;5.90;2.33;;;;;;;20.47;41.40;100706.28;6150353;23;20032;-67
2023/04/14 14:02:52;;;;;;;6.82;2.13;;;;;;;20.56;41.62;100698.81;6142394;23;20045;-70
2023/04/14 14:05:19;;;;;;;7.07;2.40;;;;;;;20.53;41.48;100710.72;6147672;23;20030;-68
2023/04/14 14:07:46;;;;;;;5.82;2.10;;;;;;;20.66;42.05;100696.56;6143370;23;20432;-67
2023/04/14 14:10:12;;;;;;;5.38;1.95;;;;;;;20.70;41.41;100700.41;6134124;23;20341;-68
2023/04/14 14:12:39;;;;;;;6.95;2.20;;;;;;;20.66;41.10;100698.38;6147767;23;20467;-68
2023/04/14 14:15:06;;;;;;;7.43;2.13;;;;;;;20.71;40.84;100690.56;6139943;23;20057;-68
2023/04/14 14:17:32;;;;;;;7.82;2.00;;;;;;;20.82;40.90;100689.06;6146558;23;20136;-68
2023/04/14 14:19:59;;;;;;;5.93;2.13;;;;;;;20.89;41.06;100687.13;6146401;23;20037;-68
2023/04/14 14:22:25;;;;;;;6.70;2.45;;;;;;;20.68;39.17;100686.50;6106858;23;20501;-68
2023/04/14 14:24:54;;;;;;;6.18;2.25;;;;;;;20.61;40.55;100682.25;6140602;23;20028;-68
2023/04/14 14:27:40;;;;;;;6.13;1.95;;;;;;;20.50;40.25;100687.19;6140515;23;20547;-67
2023/04/14 14:30:07;;;;;;;6.15;2.10;;;;;;;20.44;39.72;100677.38;6143904;23;20225;-67
2023/04/14 14:32:34;;;;;;;6.83;1.90;;;;;;;20.36;39.78;100674.97;6142189;23;20107;-67
2023/04/14 14:35:02;;;;;;;6.30;2.13;;;;;;;20.48;40.31;100677.78;6143338;23;20419;-67
2023/04/14 14:37:29;;;;;;;6.45;2.00;;;;;;;20.36;39.42;100677.66;6139064;23;20029;-69
2023/04/14 14:39:56;;;;;;;8.40;2.10;;;;;;;20.63;40.55;100677.50;6146245;23;20025;-68
2023/04/14 14:42:23;;;;;;;5.20;1.63;;;;;;;20.79;41.15;100676.16;6147777;23;20072;-67
2023/04/14 14:44:50;;;;;;;5.38;1.80;;;;;;;20.93;41.35;100672.34;6140557;23;20282;-67
2023/04/14 14:47:16;;;;;;;5.32;1.95;;;;;;;21.06;40.10;100663.41;6144487;23;20040;-70
2023/04/14 14:49:43;;;;;;;5.60;1.80;;;;;;;21.20;40.53;100659.56;6132232;23;20028;-67